Time;durP1;ratioP1;P1;durP2;ratioP2;P2;SDS_P1;SDS_P2;PMS_P1;PMS_P2;Temp;Humidity;BMP_temperature;BMP_pressure;BME280_temperature;BME280_humidity;BME280_pressure;Samples;Min_cycle;Max_cycle;Signal;HPM_P1;HPM_P2
2023/03/02 00:04:36;;;;;;;4.88;2.05;;;18.30;56.10;;;;;;10520060;28;20008;-26
2023/03/02 00:09:38;;;;;;;3.08;1.65;;;18.30;56.20;;;;;;10519170;28;20084;-28
2023/03/02 00:14:40;;;;;;;3.33;1.95;;;18.30;56.10;;;;;;10524134;28;20040;-26
2023/03/02 00:19:44;;;;;;;3.40;1.85;;;18.30;56.10;;;;;;10515780;28;20094;-24
2023/03/02 00:24:46;;;;;;;1.55;1.30;;;18.10;56.20;;;;;;10520566;28;20060;-25
2023/03/02 00:29:48;;;;;;;2.10;1.55;;;18.20;56.00;;;;;;10518587;28;20125;-25
2023/03/02 00:34:51;;;;;;;3.00;1.80;;;18.20;55.90;;;;;;10522895;28;20113;-28
2023/03/02 00:39:53;;;;;;;4.25;1.65;;;18.10;56.00;;;;;;10526753;28;20479;-26
2023/03/02 00:44:58;;;;;;;4.38;2.05;;;18.10;55.90;;;;;;10518711;28;20127;-25
2023/03/02 00:50:01;;;;;;;2.20;1.80;;;18.10;56.10;;;;;;10522463;28;20075;-25
2023/03/02 00:55:04;;;;;;;3.67;1.60;;;18.10;56.00;;;;;;10522596;28;20169;-24
2023/03/02 01:00:06;;;;;;;;;;;18.00;56.10;;;;;;10523303;28;20036;-24
2023/03/02 01:05:10;;;;;;;2.97;1.55;;;18.00;56.10;;;;;;10513255;28;19920;-24
2023/03/02 01:10:12;;;;;;;3.55;1.75;;;18.00;56.10;;;;;;10518239;28;20037;-24
2023/03/02 01:15:14;;;;;;;4.07;1.45;;;17.90;56.10;;;;;;10511897;28;20059;-25
2023/03/02 01:20:18;;;;;;;2.15;1.77;;;17.90;56.10;;;;;;10530020;28;20123;-25
2023/03/02 01:25:20;;;;;;;3.15;1.52;;;17.90;56.20;;;;;;10520929;28;20053;-26
2023/03/02 01:30:22;;;;;;;2.22;1.40;;;17.80;56.20;;;;;;10523768;28;20156;-26
2023/03/02 01:35:25;;;;;;;2.53;1.45;;;17.90;56.10;;;;;;10517556;28;20183;-26
2023/03/02 01:40:27;;;;;;;2.92;1.65;;;17.80;56.20;;;;;;10507930;28;20114;-27
2023/03/02 01:45:54;;;;;;;3.40;1.90;;;17.70;56.20;;;;;;10533567;28;20589;-26
2023/03/02 01:50:58;;;;;;;3.08;1.77;;;17.80;56.20;;;;;;10495493;28;20051;-24
2023/03/02 01:56:02;;;;;;;2.17;1.50;;;17.80;56.50;;;;;;10517516;28;20084;-24
2023/03/02 02:01:05;;;;;;;2.40;1.70;;;17.70;56.60;;;;;;10519665;28;20098;-25
2023/03/02 02:06:16;;;;;;;3.80;1.92;;;17.70;56.20;;;;;;10511145;28;20041;-26
2023/03/02 02:11:18;;;;;;;2.70;2.07;;;17.70;56.40;;;;;;10521847;28;20067;-24
2023/03/02 02:16:20;;;;;;;2.42;1.80;;;17.60;56.60;;;;;;10490704;28;20037;-26
2023/03/02 02:21:25;;;;;;;1.98;1.67;;;17.60;56.20;;;;;;10509497;28;20033;-24
2023/03/02 02:26:34;;;;;;;3.13;1.88;;;17.60;56.30;;;;;;10512916;28;20093;-26
2023/03/02 02:31:40;;;;;;;3.08;1.90;;;17.60;56.50;;;;;;10517465;28;20040;-25
2023/03/02 02:36:46;;;;;;;2.10;1.42;;;17.50;56.50;;;;;;10515975;28;20139;-24
2023/03/02 02:41:54;;;;;;;2.28;1.30;;;17.60;56.20;;;;;;10525889;28;20032;-26
2023/03/02 02:46:56;;;;;;;3.45;2.08;;;17.50;56.20;;;;;;10514522;28;20039;-25
2023/03/02 02:51:58;;;;;;;3.45;2.20;;;17.50;56.40;;;;;;10510756;28;20128;-25
2023/03/02 02:57:03;;;;;;;2.63;1.88;;;17.50;56.40;;;;;;10506923;28;20126;-25
2023/03/02 03:02:06;;;;;;;1.83;1.58;;;17.40;56.50;;;;;;10513283;28;20143;-25
2023/03/02 03:07:10;;;;;;;3.47;1.98;;;17.40;57.20;;;;;;10518097;28;20071;-24
2023/03/02 03:12:17;;;;;;;2.65;1.90;;;17.50;56.50;;;;;;10519273;28;20675;-24
2023/03/02 03:17:19;;;;;;;3.28;1.60;;;17.40;56.60;;;;;;10513342;28;20044;-24
2023/03/02 03:22:21;;;;;;;2.65;1.65;;;17.40;56.50;;;;;;10513577;28;20043;-26
2023/03/02 03:27:24;;;;;;;3.67;2.10;;;17.40;56.40;;;;;;10508065;28;20119;-24
2023/03/02 03:32:26;;;;;;;3.50;2.15;;;17.40;56.50;;;;;;10506665;28;20101;-24
2023/03/02 03:37:28;;;;;;;3.23;1.80;;;17.30;56.50;;;;;;10511015;28;20052;-25
2023/03/02 03:42:31;;;;;;;5.03;2.20;;;17.20;56.50;;;;;;10514169;28;20137;-25
2023/03/02 03:47:33;;;;;;;3.30;2.10;;;17.30;56.50;;;;;;10527384;28;20055;-24
2023/03/02 03:52:35;;;;;;;2.67;1.80;;;17.30;56.50;;;;;;10518487;28;20467;-26
2023/03/02 03:57:38;;;;;;;3.03;2.40;;;17.20;56.50;;;;;;10525892;28;20522;-25
2023/03/02 04:02:40;;;;;;;2.75;1.98;;;17.20;56.60;;;;;;10527512;28;20048;-26
2023/03/02 04:07:42;;;;;;;4.68;1.80;;;17.20;56.70;;;;;;10528643;28;20089;-26
2023/03/02 04:12:45;;;;;;;4.10;1.83;;;17.20;56.50;;;;;;10530671;28;20576;-26
2023/03/02 04:17:47;;;;;;;2.65;1.88;;;17.20;56.50;;;;;;10536363;28;20546;-25
2023/03/02 04:22:51;;;;;;;2.00;1.80;;;17.10;56.50;;;;;;10519223;28;20468;-25
2023/03/02 04:27:55;;;;;;;3.13;2.13;;;17.10;56.50;;;;;;10526033;28;20130;-25
2023/03/02 04:32:57;;;;;;;2.33;1.83;;;17.10;56.40;;;;;;10519754;28;20048;-26
2023/03/02 04:37:59;;;;;;;3.03;2.03;;;17.10;56.50;;;;;;10519635;28;20454;-24
2023/03/02 04:43:02;;;;;;;2.30;1.80;;;17.00;56.60;;;;;;10527547;28;20127;-23
2023/03/02 04:48:04;;;;;;;3.60;2.28;;;17.10;56.30;;;;;;10520006;28;20126;-24
2023/03/02 04:53:06;;;;;;;2.35;1.92;;;17.30;55.70;;;;;;10514322;28;20177;-25
2023/03/02 04:58:10;;;;;;;2.40;1.85;;;17.50;55.40;;;;;;10520533;28;20159;-26
2023/03/02 05:03:12;;;;;;;1.98;1.67;;;17.70;55.20;;;;;;10518990;28;20044;-26
2023/03/02 05:08:14;;;;;;;2.67;2.00;;;17.80;55.10;;;;;;10520077;28;20064;-25
2023/03/02 05:13:17;;;;;;;1.98;1.77;;;17.90;55.00;;;;;;10537132;28;20047;-25
2023/03/02 05:18:20;;;;;;;2.33;2.10;;;17.90;54.80;;;;;;10505384;28;20055;-23
2023/03/02 05:23:23;;;;;;;2.20;1.45;;;18.00;54.70;;;;;;10514936;28;20071;-25
2023/03/02 05:28:27;;;;;;;1.70;1.42;;;18.00;54.60;;;;;;10520163;28;20041;-25
2023/03/02 05:33:30;;;;;;;2.22;1.58;;;18.00;54.80;;;;;;10516988;28;20544;-27
2023/03/02 05:38:32;;;;;;;2.25;1.50;;;18.00;54.80;;;;;;10509415;28;20575;-28
2023/03/02 05:43:35;;;;;;;1.95;1.25;;;18.00;54.90;;;;;;10499190;28;20123;-29
2023/03/02 05:48:37;;;;;;;1.60;1.38;;;18.00;55.10;;;;;;10512249;28;20044;-26
2023/03/02 05:53:39;;;;;;;1.55;1.20;;;17.90;55.30;;;;;;10527770;28;20116;-27
2023/03/02 05:58:42;;;;;;;1.90;1.50;;;17.90;55.50;;;;;;10523309;28;20200;-26
2023/03/02 06:03:44;;;;;;;2.70;1.50;;;17.90;55.60;;;;;;10512600;28;20617;-25
2023/03/02 06:08:46;;;;;;;3.05;1.73;;;17.90;55.70;;;;;;10514754;28;20044;-25
2023/03/02 06:13:49;;;;;;;1.42;1.30;;;17.80;55.70;;;;;;10514762;28;20143;-25
2023/03/02 06:18:51;;;;;;;3.20;1.65;;;17.80;55.80;;;;;;10497220;28;20048;-25
2023/03/02 06:23:53;;;;;;;1.40;1.30;;;17.80;56.20;;;;;;10499860;28;20044;-25
2023/03/02 06:28:56;;;;;;;3.03;1.43;;;17.50;55.90;;;;;;10494827;28;20670;-26
2023/03/02 06:33:58;;;;;;;2.85;1.70;;;17.20;57.00;;;;;;10491867;28;21276;-26
2023/03/02 06:39:00;;;;;;;1.90;1.53;;;17.40;57.20;;;;;;10483750;28;20134;-26
2023/03/02 06:44:03;;;;;;;6.80;3.70;;;17.50;56.80;;;;;;10492954;28;20548;-24
2023/03/02 06:49:05;;;;;;;4.80;2.40;;;17.20;57.10;;;;;;10505889;28;20047;-25
2023/03/02 06:54:07;;;;;;;3.15;2.13;;;17.00;57.30;;;;;;10503634;28;20056;-24
2023/03/02 06:59:10;;;;;;;3.28;2.10;;;16.70;58.00;;;;;;10507231;28;20623;-24
2023/03/02 07:15:21;;;;;;;6.22;2.65;;;17.10;56.90;;;;;;10496213;27;20125;-26
2023/03/02 07:20:23;;;;;;;5.57;3.35;;;16.90;57.30;;;;;;10511041;28;20047;-26
2023/03/02 07:25:24;;;;;;;3.33;2.37;;;16.70;58.20;;;;;;10511439;28;20394;-26
2023/03/02 07:30:28;;;;;;;8.10;3.10;;;17.20;57.40;;;;;;10511068;28;20482;-25
2023/03/02 07:35:30;;;;;;;7.40;3.35;;;16.80;57.90;;;;;;10513047;28;20068;-25
2023/03/02 07:40:32;;;;;;;3.27;2.30;;;17.00;58.30;;;;;;10515716;28;20559;-26
2023/03/02 07:45:36;;;;;;;2.83;1.67;;;17.20;57.30;;;;;;10511617;28;20049;-27
2023/03/02 07:50:38;;;;;;;5.25;1.92;;;17.70;58.00;;;;;;10500321;28;20134;-25
2023/03/02 07:55:40;;;;;;;19.53;3.93;;;17.80;58.10;;;;;;10497440;28;20608;-25
2023/03/02 08:00:44;;;;;;;48.70;8.68;;;17.10;58.50;;;;;;10508357;28;20462;-26
2023/03/02 08:05:45;;;;;;;111.32;14.65;;;16.90;60.20;;;;;;10508364;28;20064;-26
2023/03/02 08:10:47;;;;;;;152.93;18.80;;;16.60;60.70;;;;;;10501360;28;20088;-26
2023/03/02 08:15:51;;;;;;;181.53;22.13;;;16.70;60.50;;;;;;10512929;28;20128;-26
2023/03/02 08:20:53;;;;;;;236.05;32.03;;;16.60;61.50;;;;;;10515285;28;20053;-26
2023/03/02 08:25:55;;;;;;;241.35;30.83;;;16.40;62.10;;;;;;10493693;28;20056;-25
2023/03/02 08:30:59;;;;;;;267.63;36.53;;;16.40;62.90;;;;;;10479033;28;20087;-25
2023/03/02 08:36:04;;;;;;;302.13;37.83;;;16.40;62.90;;;;;;10479583;28;20078;-28
2023/03/02 08:41:07;;;;;;;243.85;32.38;;;16.40;62.00;;;;;;10490640;28;20124;-26
2023/03/02 08:46:11;;;;;;;176.82;27.83;;;16.40;63.10;;;;;;10478508;28;20037;-26
2023/03/02 08:51:15;;;;;;;176.55;25.65;;;16.60;62.40;;;;;;10482319;28;20542;-28
2023/03/02 08:56:19;;;;;;;205.40;31.48;;;16.50;63.20;;;;;;10477862;28;20090;-28
2023/03/02 09:01:25;;;;;;;196.15;28.13;;;16.40;63.40;;;;;;10475301;28;20045;-30
2023/03/02 09:06:27;;;;;;;184.27;27.05;;;16.90;65.70;;;;;;10474780;28;20079;-28
2023/03/02 09:11:29;;;;;;;177.63;28.20;;;17.20;62.60;;;;;;10485431;28;20048;-24
2023/03/02 09:16:32;;;;;;;173.18;32.60;;;16.40;63.00;;;;;;10484814;28;20111;-25
2023/03/02 09:21:34;;;;;;;162.18;25.70;;;16.30;64.20;;;;;;10462478;28;20052;-24
2023/03/02 09:26:37;;;;;;;170.33;24.63;;;16.30;64.90;;;;;;10473574;28;20075;-30
2023/03/02 09:31:41;;;;;;;123.63;22.23;;;16.20;64.70;;;;;;10469094;28;20490;-26
2023/03/02 09:36:42;;;;;;;113.03;22.77;;;16.30;64.90;;;;;;10471254;28;20075;-25
2023/03/02 09:42:12;;;;;;;137.07;21.17;;;16.10;65.20;;;;;;10479144;28;20072;-24
2023/03/02 09:47:21;;;;;;;122.72;20.35;;;16.20;65.30;;;;;;10471161;28;20111;-23
2023/03/02 09:52:30;;;;;;;94.45;17.33;;;16.20;65.70;;;;;;10474684;28;20514;-25
2023/03/02 09:57:37;;;;;;;84.43;14.48;;;16.10;66.40;;;;;;10474530;28;20143;-24
2023/03/02 10:02:47;;;;;;;29.80;8.85;;;16.10;64.90;;;;;;10483775;28;20131;-24
2023/03/02 10:07:49;;;;;;;33.15;9.23;;;16.90;62.60;;;;;;10476264;28;20754;-24
2023/03/02 10:13:02;;;;;;;27.90;7.30;;;17.20;61.70;;;;;;10481795;28;20709;-24
2023/03/02 10:18:17;;;;;;;19.05;5.28;;;17.30;60.80;;;;;;10483515;28;20520;-24
2023/03/02 10:23:32;;;;;;;18.38;5.15;;;17.30;60.50;;;;;;10476119;28;20044;-24
2023/03/02 10:28:39;;;;;;;17.80;5.03;;;17.30;60.50;;;;;;10485191;28;20076;-24
2023/03/02 10:33:42;;;;;;;14.05;4.22;;;17.20;59.40;;;;;;10475312;28;20091;-23
2023/03/02 10:38:45;;;;;;;17.50;4.15;;;17.60;59.50;;;;;;10479556;28;20118;-24
2023/03/02 10:43:51;;;;;;;17.42;4.15;;;17.50;59.60;;;;;;10464007;28;20056;-25
2023/03/02 10:48:57;;;;;;;33.75;6.90;;;17.50;59.70;;;;;;10476003;28;20040;-24
2023/03/02 10:54:06;;;;;;;39.75;9.07;;;16.90;62.50;;;;;;10471288;28;20163;-26
2023/03/02 10:59:42;;;;;;;48.08;9.50;;;16.60;63.90;;;;;;10479705;28;20094;-24
2023/03/02 11:04:45;;;;;;;80.93;12.05;;;16.50;64.80;;;;;;10474871;28;20166;-23
2023/03/02 11:09:58;;;;;;;131.02;19.42;;;16.40;65.60;;;;;;10480726;28;20075;-24
2023/03/02 11:15:17;;;;;;;186.35;25.52;;;16.40;66.00;;;;;;10476880;28;20091;-25
2023/03/02 11:20:24;;;;;;;352.38;45.83;;;16.40;66.10;;;;;;10476039;28;20131;-24
2023/03/02 11:25:31;;;;;;;372.00;52.70;;;16.40;66.30;;;;;;10476302;28;20036;-25
2023/03/02 11:30:40;;;;;;;435.23;59.83;;;16.50;66.40;;;;;;10470647;28;20425;-22
2023/03/02 11:35:47;;;;;;;428.00;64.43;;;16.60;65.60;;;;;;10471772;28;20071;-22
2023/03/02 11:40:55;;;;;;;342.30;45.53;;;16.40;66.90;;;;;;10479173;28;20061;-24
2023/03/02 11:46:00;;;;;;;294.40;42.38;;;16.50;66.30;;;;;;10463447;28;20071;-24
2023/03/02 11:51:06;;;;;;;310.33;48.90;;;17.00;63.30;;;;;;10472793;28;20053;-24
2023/03/02 11:56:08;;;;;;;489.73;67.57;;;16.70;64.70;;;;;;10477918;28;20072;-27
2023/03/02 12:01:16;;;;;;;488.35;70.35;;;16.60;66.00;;;;;;10481814;28;20128;-24
2023/03/02 12:06:35;;;;;;;692.33;106.85;;;16.70;66.00;;;;;;10484033;28;20044;-25
2023/03/02 12:11:39;;;;;;;945.55;154.40;;;16.60;66.20;;;;;;10478157;28;20400;-24
2023/03/02 12:16:44;;;;;;;1134.15;194.23;;;16.60;65.70;;;;;;10488385;28;21852;-22
2023/03/02 12:21:57;;;;;;;1404.95;262.42;;;16.50;62.10;;;;;;10480431;28;20066;-24
2023/03/02 12:27:03;;;;;;;1801.88;332.75;;;16.60;66.00;;;;;;10478760;28;20112;-24
2023/03/02 12:32:13;;;;;;;1959.35;360.63;;;16.50;66.80;;;;;;10481570;28;20087;-25
2023/03/02 12:37:23;;;;;;;1999.90;377.38;;;16.70;66.50;;;;;;10484591;28;20064;-27
2023/03/02 12:42:39;;;;;;;1999.90;412.92;;;16.70;67.10;;;;;;10471166;28;20047;-23
2023/03/02 12:47:44;;;;;;;1999.90;419.30;;;16.60;67.60;;;;;;10477592;28;20068;-24
2023/03/02 12:52:57;;;;;;;1999.90;417.25;;;16.70;66.40;;;;;;10461768;28;20048;-24
2023/03/02 12:58:01;;;;;;;1999.90;395.38;;;16.80;65.50;;;;;;10487322;28;20051;-24
2023/03/02 13:03:05;;;;;;;1836.90;335.02;;;16.80;66.60;;;;;;10481903;28;20079;-24
2023/03/02 13:08:17;;;;;;;1865.78;361.73;;;16.80;66.50;;;;;;10488502;28;20144;-24
2023/03/02 13:13:21;;;;;;;1847.03;357.77;;;16.90;66.80;;;;;;10480707;28;20082;-25
2023/03/02 13:18:25;;;;;;;1790.38;339.33;;;16.90;67.20;;;;;;10472757;28;20127;-24
2023/03/02 13:23:30;;;;;;;1666.68;318.83;;;17.00;66.40;;;;;;10482925;28;20465;-24
2023/03/02 13:28:34;;;;;;;1450.65;278.50;;;17.00;66.60;;;;;;10485761;28;20039;-25
2023/03/02 13:33:45;;;;;;;1423.68;266.10;;;17.20;64.70;;;;;;10477351;28;20114;-24
2023/03/02 13:38:50;;;;;;;1374.40;259.63;;;17.50;63.90;;;;;;10478379;28;20047;-24
2023/03/02 13:43:52;;;;;;;1198.53;240.68;;;17.70;63.80;;;;;;10480461;28;20435;-24
2023/03/02 13:48:55;;;;;;;1317.88;239.63;;;18.00;62.30;;;;;;10476798;28;20435;-25
2023/03/02 13:54:00;;;;;;;1202.03;228.90;;;18.20;61.70;;;;;;10479511;28;20068;-24
2023/03/02 13:59:02;;;;;;;1358.97;253.90;;;18.30;58.20;;;;;;10483651;28;20075;-24
2023/03/02 14:04:04;;;;;;;1439.28;258.35;;;18.50;60.80;;;;;;10479895;28;20123;-24
2023/03/02 14:09:07;;;;;;;1451.85;286.85;;;18.60;60.80;;;;;;10481617;28;20429;-25
2023/03/02 14:14:15;;;;;;;1538.50;279.58;;;18.70;60.50;;;;;;10480091;28;20057;-25
2023/03/02 14:19:18;;;;;;;1444.57;278.38;;;18.80;60.30;;;;;;10482307;28;20041;-25
2023/03/02 14:24:22;;;;;;;1470.70;264.33;;;19.00;60.40;;;;;;10483540;28;20155;-25
2023/03/02 14:29:27;;;;;;;1343.82;245.00;;;19.10;60.30;;;;;;10467764;28;20053;-23
2023/03/02 14:34:28;;;;;;;1178.05;220.55;;;19.10;60.00;;;;;;10479562;28;20122;-24
2023/03/02 14:39:36;;;;;;;1269.85;232.77;;;19.10;59.60;;;;;;10473937;28;20115;-24
2023/03/02 14:44:38;;;;;;;1153.45;208.63;;;19.30;59.70;;;;;;10476565;28;20128;-23
2023/03/02 14:49:40;;;;;;;1000.33;181.23;;;19.40;59.50;;;;;;10475850;28;20153;-23
2023/03/02 14:54:48;;;;;;;1040.25;172.13;;;19.50;59.30;;;;;;10477562;28;20419;-23
2023/03/02 14:59:49;;;;;;;918.33;165.00;;;19.70;59.00;;;;;;10477918;28;20055;-26
2023/03/02 15:04:53;;;;;;;918.28;156.82;;;19.70;59.30;;;;;;10477192;28;20147;-25
2023/03/02 15:09:57;;;;;;;662.47;106.40;;;19.90;58.10;;;;;;10482208;28;20131;-28
2023/03/02 15:14:59;;;;;;;401.80;67.13;;;20.10;57.90;;;;;;10475532;28;20478;-23
2023/03/02 15:20:01;;;;;;;590.72;93.75;;;19.80;57.90;;;;;;10465139;28;20117;-30
2023/03/02 15:25:05;;;;;;;643.60;101.90;;;20.00;56.80;;;;;;10464858;28;20038;-24
2023/03/02 15:30:08;;;;;;;651.33;97.85;;;20.30;57.10;;;;;;10475573;28;20043;-24
2023/03/02 15:35:11;;;;;;;584.03;90.65;;;20.40;57.30;;;;;;10481415;28;20108;-24
2023/03/02 15:40:14;;;;;;;582.50;89.38;;;20.50;57.20;;;;;;10480249;28;20036;-23
2023/03/02 15:45:16;;;;;;;571.08;81.70;;;20.70;57.00;;;;;;10489719;28;20538;-24
2023/03/02 15:50:18;;;;;;;508.33;76.00;;;20.80;57.00;;;;;;10480154;28;20120;-23
2023/03/02 15:55:21;;;;;;;506.30;74.85;;;20.80;56.80;;;;;;10477609;28;20107;-22
2023/03/02 16:00:23;;;;;;;429.15;62.83;;;21.00;56.20;;;;;;10484137;28;21068;-23
2023/03/02 16:05:25;;;;;;;392.95;56.92;;;21.10;56.20;;;;;;10478263;28;20501;-24
2023/03/02 16:10:30;;;;;;;385.55;53.70;;;21.20;56.00;;;;;;10485722;28;20128;-23
2023/03/02 16:15:38;;;;;;;365.15;52.05;;;21.30;55.90;;;;;;10474037;28;20163;-23
2023/03/02 16:20:41;;;;;;;327.95;50.33;;;21.30;55.80;;;;;;10480778;28;20053;-24
2023/03/02 16:25:46;;;;;;;319.30;39.38;;;21.30;57.30;;;;;;10484542;28;20056;-23
2023/03/02 16:30:50;;;;;;;299.17;40.65;;;21.50;56.60;;;;;;10475474;28;20090;-23
2023/03/02 16:35:51;;;;;;;250.43;35.72;;;21.40;56.40;;;;;;10485795;28;20044;-26
2023/03/02 16:40:55;;;;;;;243.98;33.38;;;21.50;55.80;;;;;;10468480;28;20095;-23
2023/03/02 16:45:56;;;;;;;211.00;31.33;;;21.50;56.00;;;;;;10474307;28;20543;-23
2023/03/02 16:50:58;;;;;;;206.93;27.48;;;21.40;57.00;;;;;;10483272;28;20049;-23
2023/03/02 16:56:02;;;;;;;169.30;25.58;;;21.60;55.90;;;;;;10486786;28;20137;-23
2023/03/02 17:01:04;;;;;;;143.73;23.40;;;21.50;55.80;;;;;;10479494;28;20045;-23
2023/03/02 17:06:07;;;;;;;134.65;21.88;;;21.60;55.70;;;;;;10476612;28;20659;-24
2023/03/02 17:11:11;;;;;;;112.65;18.38;;;21.60;55.30;;;;;;10485523;28;20048;-26
2023/03/02 17:16:14;;;;;;;116.82;17.98;;;21.50;55.30;;;;;;10483765;28;20071;-23
2023/03/02 17:21:17;;;;;;;124.60;15.18;;;21.50;57.40;;;;;;10474989;28;20072;-23
2023/03/02 17:26:20;;;;;;;;;;;21.50;57.60;;;;;;10474604;28;20524;-24
2023/03/02 17:31:21;;;;;;;78.95;12.30;;;21.40;56.50;;;;;;10473128;28;19920;-24
2023/03/02 17:36:23;;;;;;;67.45;11.80;;;21.40;56.40;;;;;;10480079;28;20131;-28
2023/03/02 17:41:27;;;;;;;65.03;11.55;;;21.30;57.50;;;;;;10474293;28;20079;-25
2023/03/02 17:46:31;;;;;;;65.45;12.77;;;21.20;56.90;;;;;;10477896;28;20063;-23
2023/03/02 17:51:32;;;;;;;64.75;13.05;;;21.10;57.20;;;;;;10486521;28;20241;-23
2023/03/02 17:56:36;;;;;;;82.55;12.90;;;21.00;57.60;;;;;;10479578;28;20151;-24
2023/03/02 18:01:38;;;;;;;80.85;13.60;;;20.90;57.50;;;;;;10464837;28;20076;-24
2023/03/02 18:06:40;;;;;;;78.00;13.02;;;20.90;57.60;;;;;;10477972;28;20041;-24
2023/03/02 18:11:44;;;;;;;78.90;12.95;;;20.80;57.60;;;;;;10482025;28;20090;-24
2023/03/02 18:16:46;;;;;;;90.03;15.07;;;20.80;57.30;;;;;;10472543;28;20135;-23
2023/03/02 18:21:48;;;;;;;151.57;19.30;;;20.50;58.30;;;;;;10475231;28;20481;-24
2023/03/02 18:26:51;;;;;;;160.00;22.15;;;20.50;58.30;;;;;;10474030;28;20044;-24
2023/03/02 18:31:53;;;;;;;227.75;26.42;;;20.30;58.90;;;;;;10473641;28;20064;-24
2023/03/02 18:36:56;;;;;;;245.80;27.30;;;20.30;58.80;;;;;;10479720;28;20060;-24
2023/03/02 18:41:59;;;;;;;277.30;28.73;;;20.10;59.00;;;;;;10481644;28;20098;-24
2023/03/02 18:47:01;;;;;;;280.17;32.42;;;20.00;59.10;;;;;;10476889;28;20068;-23
2023/03/02 18:52:05;;;;;;;297.65;36.50;;;19.90;59.60;;;;;;10474020;28;20091;-24
2023/03/02 18:57:09;;;;;;;267.75;32.00;;;20.00;59.30;;;;;;10474669;28;20048;-24
2023/03/02 19:02:13;;;;;;;282.58;31.58;;;19.90;59.70;;;;;;10474984;28;20289;-24
2023/03/02 19:07:15;;;;;;;233.43;27.13;;;19.90;59.30;;;;;;10473884;28;20111;-24
2023/03/02 19:12:18;;;;;;;228.35;27.42;;;19.90;59.40;;;;;;10478225;28;20041;-23
2023/03/02 19:17:20;;;;;;;204.13;24.92;;;19.90;59.40;;;;;;10468345;28;20049;-23
2023/03/02 19:22:22;;;;;;;166.57;23.55;;;19.80;59.30;;;;;;10467318;28;20052;-23
2023/03/02 19:27:26;;;;;;;122.25;16.42;;;19.80;59.30;;;;;;10468922;28;20043;-23
2023/03/02 19:32:28;;;;;;;91.15;16.20;;;20.00;59.20;;;;;;10465796;28;20044;-25
2023/03/02 19:37:32;;;;;;;66.18;12.10;;;20.20;58.30;;;;;;10471603;28;20143;-24
2023/03/02 19:42:38;;;;;;;67.07;12.13;;;20.20;58.20;;;;;;10479426;28;20757;-25
2023/03/02 19:47:40;;;;;;;60.42;13.55;;;20.20;58.40;;;;;;10473632;28;20412;-24
2023/03/02 19:52:42;;;;;;;64.68;11.55;;;20.20;58.40;;;;;;10468681;28;20040;-24
2023/03/02 19:57:49;;;;;;;55.97;11.00;;;20.10;58.60;;;;;;10470906;28;20068;-24
2023/03/02 20:02:51;;;;;;;52.20;10.10;;;20.10;58.80;;;;;;10479514;28;20511;-24
2023/03/02 20:07:54;;;;;;;76.55;12.10;;;19.90;59.00;;;;;;10469011;28;20047;-24
2023/03/02 20:12:58;;;;;;;55.42;10.88;;;19.80;59.40;;;;;;10477759;28;20120;-24
2023/03/02 20:18:02;;;;;;;45.85;10.38;;;19.60;59.60;;;;;;10476682;28;20374;-24
2023/03/02 20:23:04;;;;;;;43.20;12.05;;;19.70;60.20;;;;;;10477619;28;20053;-25
2023/03/02 20:28:10;;;;;;;38.50;8.88;;;19.70;60.00;;;;;;10480212;28;20063;-23
2023/03/02 20:33:13;;;;;;;45.42;8.48;;;19.60;60.30;;;;;;10483692;28;20079;-23
2023/03/02 20:38:19;;;;;;;33.53;8.07;;;19.60;60.30;;;;;;10487489;28;20127;-24
2023/03/02 20:43:22;;;;;;;34.30;7.30;;;19.60;60.20;;;;;;10477555;28;20041;-25
2023/03/02 20:48:25;;;;;;;29.35;8.32;;;19.50;60.50;;;;;;10475781;28;20476;-24
2023/03/02 20:53:27;;;;;;;24.27;6.85;;;19.50;60.30;;;;;;10477343;28;20044;-23
2023/03/02 20:58:30;;;;;;;24.20;7.03;;;19.30;60.60;;;;;;10482526;28;20131;-22
2023/03/02 21:03:32;;;;;;;32.08;6.75;;;19.30;60.60;;;;;;10480308;28;20092;-24
2023/03/02 21:08:38;;;;;;;32.63;7.47;;;19.30;60.50;;;;;;10481406;28;20041;-26
2023/03/02 21:13:44;;;;;;;24.15;6.38;;;19.30;60.40;;;;;;10485592;28;20067;-24
2023/03/02 21:18:46;;;;;;;28.67;7.28;;;19.10;60.60;;;;;;10484050;28;20578;-24
2023/03/02 21:23:48;;;;;;;36.55;7.93;;;19.20;61.60;;;;;;10474750;28;20072;-22
2023/03/02 21:28:51;;;;;;;28.60;6.00;;;19.10;60.00;;;;;;10481450;28;20080;-24
2023/03/02 21:33:53;;;;;;;24.48;6.55;;;18.90;61.10;;;;;;10472348;28;20041;-25
2023/03/02 21:38:55;;;;;;;27.35;6.43;;;18.90;61.20;;;;;;10465905;28;20442;-24
2023/03/02 21:43:58;;;;;;;27.30;7.60;;;18.80;61.70;;;;;;10484588;28;20051;-25
2023/03/02 21:49:01;;;;;;;19.63;5.10;;;18.70;62.00;;;;;;10477248;28;20123;-21
2023/03/02 21:54:04;;;;;;;33.10;6.70;;;18.70;61.90;;;;;;10483263;28;20071;-30
2023/03/02 21:59:08;;;;;;;27.48;6.32;;;18.50;62.00;;;;;;10474412;28;20505;-24
2023/03/02 22:04:10;;;;;;;22.42;6.50;;;18.50;61.70;;;;;;10483783;28;20071;-24
2023/03/02 22:09:11;;;;;;;23.90;5.68;;;18.40;62.70;;;;;;10485844;28;20150;-23
2023/03/02 22:14:19;;;;;;;17.90;4.57;;;18.30;61.90;;;;;;10492564;28;20059;-23
2023/03/02 22:19:25;;;;;;;18.60;5.07;;;18.30;62.10;;;;;;10484155;28;20473;-23
2023/03/02 22:24:28;;;;;;;26.20;5.28;;;18.20;61.70;;;;;;10484843;28;20461;-23
2023/03/02 22:29:34;;;;;;;19.20;4.80;;;18.20;61.40;;;;;;10481519;28;20072;-23
2023/03/02 22:34:37;;;;;;;25.80;5.75;;;18.10;61.90;;;;;;10472064;28;20053;-24
2023/03/02 22:39:39;;;;;;;25.73;4.75;;;18.10;62.50;;;;;;10464398;28;20040;-22
2023/03/02 22:44:42;;;;;;;22.13;4.88;;;18.10;62.10;;;;;;10466623;28;20072;-23
2023/03/02 22:49:45;;;;;;;22.27;4.55;;;18.00;62.70;;;;;;10468558;28;20098;-24
2023/03/02 22:54:47;;;;;;;19.60;5.57;;;18.00;61.70;;;;;;10480683;28;20040;-23
2023/03/02 22:59:50;;;;;;;19.80;5.05;;;17.90;62.50;;;;;;10469196;28;20898;-23
2023/03/02 23:04:52;;;;;;;13.07;4.55;;;18.00;62.60;;;;;;10474781;28;20048;-24
2023/03/02 23:09:54;;;;;;;14.60;4.32;;;18.00;62.10;;;;;;10469545;28;20040;-23
2023/03/02 23:14:59;;;;;;;15.27;4.43;;;18.00;61.90;;;;;;10475823;28;20055;-24
2023/03/02 23:20:01;;;;;;;14.75;4.63;;;18.00;62.00;;;;;;10471661;28;20048;-24
2023/03/02 23:25:04;;;;;;;13.30;4.22;;;17.90;62.00;;;;;;10469252;28;20047;-21
2023/03/02 23:30:08;;;;;;;;;;;18.00;61.60;;;;;;10476404;28;20140;-23
2023/03/02 23:35:10;;;;;;;14.13;3.28;;;17.90;62.60;;;;;;10476531;28;19931;-23
2023/03/02 23:40:12;;;;;;;10.30;2.70;;;17.90;62.50;;;;;;10472890;28;20090;-24
2023/03/02 23:45:16;;;;;;;15.15;3.65;;;17.80;62.20;;;;;;10474514;28;20420;-24
2023/03/02 23:50:18;;;;;;;13.65;3.80;;;17.80;62.40;;;;;;10476645;28;20075;-24
2023/03/02 23:55:20;;;;;;;11.93;3.15;;;17.60;62.90;;;;;;10472141;28;20545;-25
